Broken Arrow, OK (74012)

6:04 PM CST on December 22, 2014 (GMT -0600)
Country Aire | Change Station
CLOSE
Current Station
Personal Weather Station
Location: Broken Arrow, OK
Elevation: 697 ft
Nearby Weather Stations

Elev 697 ft 36.05 °N, 95.82 °W | Updated 4 seconds ago

Mostly Cloudy
Mostly Cloudy
51.1 °F
Feels Like 51.1 °F
N
2.0
Wind Variable Wind from WNW
Gusts 5.0 mph

Today
High -- | Low -- °F
--% Chance of Precip.
Yesterday
High -- | Low -- °F
Precip. -- in
7:30 AM 5:13 PM
New Moon, 1% visible
Pressure 29.64 in
Visibility 10.0 miles
Clouds Clear
Dew Point 44 °F
Humidity 76%
Rainfall 0.00 in
Snow Depth Not available.
UV 0.0 out of 12
Pollen 6.30 out of 12
Air Quality Not available.
Flu Activity Not available.
METAR KRVS 222353Z 00000KT 10SM CLR 10/04 A2963 RMK AO2 SLP036 T01000044 10128 20100 52033

More Conditions Fewer Conditions

Pressure 29.64 in
Visibility 10.0 miles
Clouds Clear
Dew Point 44 °F
Humidity 76%
Rainfall 0.00 in
Snow Depth Not available.
UV 0.0 out of 12
Pollen 6.30 out of 12
Air Quality Not available.
Flu Activity Not available.
METAR KRVS 222353Z 00000KT 10SM CLR 10/04 A2963 RMK AO2 SLP036 T01000044 10128 20100 52033

More Conditions Fewer Conditions

Nowcast | as of 5:27 PM CST on December 22, 2014

At 5:27 PM...National Weather Service Doppler radars continued to detect scattered light rain and areas of drizzle moving across far eastern Oklahoma and western Arkansas. Most of the precipitation was located along and east of the Arkansas state line. All this activity was moving toward the east...around 40 miles per hour. Through 7:00 PM...light rain or drizzle will continue to affect far eastern Oklahoma and western Arkansas. Precipitation amounts will be very light...with between a trace...and a few hundredths of an inch expected. The precipitation will come to an end from west to east as northwest winds bring cooler and drier air into the region.

×

10-Day Weather Forecast

Almanac

Astronomy

Dec. 22, 2014 Rise Set
Actual Time
Civil Twilight
Nautical Twilight
Astronomical Twilight
Moon
Length of Visible Light
Length of Day
Tomorrow will be .
, % of the Moon is Illuminated

Today's Extremes

State Highs State Lows

Community

WunderPhotos

Upload Photos

1,779,732 photos uploaded!

WunderBlogs® & News

Nearby

Air Quality

  Air Quality AQ Index Pollutant
Not available.

Snow Depth

Station Depth Elevation

Earthquake Activity

City Distance Mag. Time & Date
Minimum magnitude displayed is 2.5.

Coastal Water Temperatures

Place Temperature

Nearby Weather Stations